Prairie Hill, Texas
Current Conditions -  °F | °C
As of 8:55 AM on Thursday 30 Oct 2014 (Local Time) from KLXY Reporting Station
Clear Clear  
Wind Chill: 56°   Ceiling: Unl
Heat Index: 56°   Visibility: 10mi
Dew Point: 49°   Wind: 6mph
Humidity: 80%   Direction: 130°SE
Pressure: 30.16"   Gusts: NA
Location:  31.66°N, 96.79°W
Report Text: KLXY 301355Z AUTO 13005KT 10SM CLR 13/10 A3016 RMK AO2 T01310097
Loading
Personal Weather Stations






























Interactive Weather Map New forecast layout! Learn more

10-Day Weather Forecast

Advertisements
Track Severe Weather on mobile